Allison, Colorado
Current Conditions -  °F | °C
As of 11:53 PM on Friday 28 Nov 2014 (Local Time) from KDRO Reporting Station
Clear Clear  
Wind Chill: 23°   Ceiling: Unl
Heat Index: 28°   Visibility: 10mi
Dew Point: 15°   Wind: 5mph
Humidity: 58%   Direction: 10°N
Pressure: 30.08"   Gusts: NA
Location:  37.0891°N, 107.649°W
Report Text: KDRO 290653Z AUTO 01004KT 10SM CLR M02/M09 A3008 RMK AO2 SLP178 T10221094 401501078
Loading
Personal Weather Stations






























Interactive Weather Map New forecast layout! Learn more

10-Day Weather Forecast

Advertisements
Track Severe Weather on mobile